Home > Products > Valid Products > TAF

000
FTUS41 KPBZ 290935 AAA
TAFPIT
TAF AMD
KPIT 290935Z 2910/3012 VRB03KT P6SM SCT250
     FM291400 15006KT P6SM SCT040
     FM291800 18008KT P6SM VCTS BKN050CB BKN100
     FM300300 VRB04KT P6SM BKN080=



000
FTUS41 KPBZ 290935 AAA
TAFPIT
TAF AMD
KPIT 290935Z 2910/3012 VRB03KT P6SM SCT250
     FM291400 15006KT P6SM SCT040
     FM291800 18008KT P6SM VCTS BKN050CB BKN100
     FM300300 VRB04KT P6SM BKN080=



000
FTUS41 KPBZ 290526
TAFMGW
TAF
KMGW 290526Z 2906/3006 VRB03KT P6SM FEW040
     FM291900 17005KT P6SM VCTS BKN040CB
     FM300400 VRB04KT P6SM BKN080=



000
FTUS41 KPBZ 290526
TAFDUJ
TAF
KDUJ 290526Z 2906/3006 09005KT P6SM SKC
     FM291600 16008KT P6SM BKN040
     FM291900 17009KT P6SM VCTS BKN040CB BKN080
     FM300400 17006KT P6SM BKN080=



000
FTUS41 KPBZ 290526
TAFBVI
TAF
KBVI 290526Z 2906/3006 VRB03KT P6SM SKC
     FM291400 15006KT P6SM SCT040
     FM291800 18008KT P6SM VCTS BKN050CB BKN100
     FM300300 VRB04KT P6SM BKN080
      AMD NOT SKED=



000
FTUS41 KPBZ 290526
TAFZZV
TAF
KZZV 290526Z 2906/3006 04005KT P6SM SCT250
     FM291500 16005KT P6SM VCSH BKN050
     FM291800 18006KT P6SM VCTS BKN050CB BKN100
     FM300300 VRB04KT P6SM BKN100=



000
FTUS41 KPBZ 290526
TAFLBE
TAF
KLBE 290526Z 2906/3006 VRB03KT P6SM SKC
     FM291500 16005KT P6SM BKN040
     FM291900 19005KT P6SM VCTS BKN050CB BKN100
     FM300400 VRB04KT P6SM BKN080=



000
FTUS41 KPBZ 290526
TAFPIT
TAF
KPIT 290526Z 2906/3012 VRB03KT P6SM SKC
     FM291400 15006KT P6SM SCT040
     FM291800 18008KT P6SM VCTS BKN050CB BKN100
     FM300300 VRB04KT P6SM BKN080=



000
FTUS41 KPBZ 290526
TAFAGC
TAF
KAGC 290526Z 2906/3006 VRB05KT P6SM SKC
     FM291400 14006KT P6SM SCT040
     FM291800 17008KT P6SM VCTS BKN050CB BKN100
     FM300300 VRB04KT P6SM BKN080=



000
FTUS41 KPBZ 290526
TAFHLG
TAF
KHLG 290526Z 2906/3006 VRB04KT P6SM SCT250
     FM291500 16005KT P6SM BKN040
     FM291800 19005KT P6SM VCTS BKN040CB BKN100
     FM300300 VRB04KT P6SM BKN080=



000
FTUS41 KPBZ 290233 AAA
TAFPIT
TAF AMD
KPIT 290233Z 2903/3006 VRB05KT P6SM SKC
     FM291400 16005KT P6SM SCT040
     FM291800 17006KT P6SM BKN080
     FM292000 19005KT P6SM VCTS BKN040CB OVC080
     FM300100 VRB05KT P6SM OVC080=



000
FTUS41 KPBZ 282320
TAFPIT
TAF
KPIT 282320Z 2900/3006 VRB05KT P6SM SKC
     FM291500 16005KT P6SM BKN040
     FM292000 19005KT P6SM VCTS BKN040CB
     FM300100 VRB05KT P6SM OVC080=



000
FTUS41 KPBZ 282320
TAFDUJ
TAF
KDUJ 282320Z 2900/2924 02005KT P6SM SKC
     FM291500 16008KT P6SM BKN040
     FM292100 19005KT P6SM VCTS BKN040CB=



000
FTUS41 KPBZ 282320
TAFLBE
TAF
KLBE 282320Z 2900/2924 VRB05KT P6SM SKC
     FM291500 16005KT P6SM BKN040
     FM292000 19005KT P6SM VCTS BKN040CB=



000
FTUS41 KPBZ 282320
TAFZZV
TAF
KZZV 282320Z 2900/2924 04005KT P6SM SCT040
     FM291200 16005KT P6SM VCSH BKN050
     FM291800 18006KT P6SM VCTS BKN050CB=



000
FTUS41 KPBZ 282320
TAFHLG
TAF
KHLG 282320Z 2900/2924 VRB05KT P6SM SKC
     FM291500 16005KT P6SM BKN040
     FM292000 19005KT P6SM VCTS BKN040CB=



000
FTUS41 KPBZ 282320
TAFPIT
TAF
KPIT 282320Z 2900/3006 VRB05KT P6SM SKC
     FM291500 16005KT P6SM BKN040
     FM292000 19005KT P6SM VCTS BKN040CB
     FM300100 VRB05KT P6SM OVC080=



000
FTUS41 KPBZ 282320
TAFMGW
TAF
KMGW 282320Z 2900/2924 08003KT P6SM SCT040
     FM292100 17005KT P6SM VCTS BKN040CB=



000
FTUS41 KPBZ 282320
TAFZZV
TAF
KZZV 282320Z 2900/2924 04005KT P6SM SCT040
     FM291200 16005KT P6SM VCSH BKN050
     FM291800 18006KT P6SM VCTS BKN050CB=



000
FTUS41 KPBZ 282320
TAFLBE
TAF
KLBE 282320Z 2900/2924 VRB05KT P6SM SKC
     FM291500 16005KT P6SM BKN040
     FM292000 19005KT P6SM VCTS BKN040CB=



000
FTUS41 KPBZ 282320
TAFAGC
TAF
KAGC 282320Z 2900/2924 VRB05KT P6SM SKC
     FM291500 16005KT P6SM BKN040
     FM292000 19005KT P6SM VCTS BKN040CB=



000
FTUS41 KPBZ 282320
TAFBVI
TAF
KBVI 282320Z 2900/2924 VRB05KT P6SM SKC
     FM291500 16005KT P6SM BKN040
     FM292000 19005KT P6SM VCTS BKN040CB
      AMD NOT SKED 2902/2912=



000
FTUS41 KPBZ 282320
TAFMGW
TAF
KMGW 282320Z 2900/2924 08003KT P6SM SCT040
     FM292100 17005KT P6SM VCTS BKN040CB=



000
FTUS41 KPBZ 282320
TAFBVI
TAF
KBVI 282320Z 2900/2924 VRB05KT P6SM SKC
     FM291500 16005KT P6SM BKN040
     FM292000 19005KT P6SM VCTS BKN040CB
      AMD NOT SKED 2902/2912=



000
FTUS41 KPBZ 282320
TAFAGC
TAF
KAGC 282320Z 2900/2924 VRB05KT P6SM SKC
     FM291500 16005KT P6SM BKN040
     FM292000 19005KT P6SM VCTS BKN040CB=



000
FTUS41 KPBZ 282320
TAFHLG
TAF
KHLG 282320Z 2900/2924 VRB05KT P6SM SKC
     FM291500 16005KT P6SM BKN040
     FM292000 19005KT P6SM VCTS BKN040CB=



000
FTUS41 KPBZ 282320
TAFDUJ
TAF
KDUJ 282320Z 2900/2924 02005KT P6SM SKC
     FM291500 16008KT P6SM BKN040
     FM292100 19005KT P6SM VCTS BKN040CB=



000
FTUS41 KPBZ 282052 AAA
TAFPIT
TAF AMD
KPIT 282052Z 2821/2924 04004KT P6SM SCT040
     FM291400 16005KT P6SM BKN040
     FM292000 19005KT P6SM VCTS BKN040CB=



000
FTUS41 KPBZ 281725
TAFBVI
TAF
KBVI 281725Z 2818/2918 04005KT P6SM SCT040
     FM291400 16005KT P6SM BKN040=



000
FTUS41 KPBZ 281725
TAFHLG
TAF
KHLG 281725Z 2818/2918 04005KT P6SM SCT040
     FM291400 16005KT P6SM BKN040=



000
FTUS41 KPBZ 281725
TAFDUJ
TAF
KDUJ 281725Z 2818/2918 02005KT P6SM SCT250
     FM291400 16008KT P6SM BKN040=



000
FTUS41 KPBZ 281725
TAFMGW
TAF
KMGW 281725Z 2818/2918 02005KT P6SM BKN035
     FM290000 08003KT P6SM SCT040
     FM291400 16005KT P6SM VCSH BKN040=



000
FTUS41 KPBZ 281725
TAFZZV
TAF
KZZV 281725Z 2818/2918 04005KT P6SM SCT040
     FM291200 16005KT P6SM VCSH BKN040=



000
FTUS41 KPBZ 281725
TAFPIT
TAF
KPIT 281725Z 2818/2924 04005KT P6SM SCT040
     FM291400 16005KT P6SM BKN040
     FM292000 19005KT P6SM VCTS BKN040CB=



000
FTUS41 KPBZ 281725
TAFLBE
TAF
KLBE 281725Z 2818/2918 04005KT P6SM SCT040
     FM291400 16005KT P6SM BKN040=



000
FTUS41 KPBZ 281725
TAFDUJ
TAF
KDUJ 281725Z 2818/2918 02005KT P6SM SCT250
     FM291400 16008KT P6SM BKN040=



000
FTUS41 KPBZ 281725
TAFHLG
TAF
KHLG 281725Z 2818/2918 04005KT P6SM SCT040
     FM291400 16005KT P6SM BKN040=



000
FTUS41 KPBZ 281725
TAFBVI
TAF
KBVI 281725Z 2818/2918 04005KT P6SM SCT040
     FM291400 16005KT P6SM BKN040=



000
FTUS41 KPBZ 281725
TAFAGC
TAF
KAGC 281725Z 2818/2918 04005KT P6SM SCT040
     FM291400 16005KT P6SM BKN040=



000
FTUS41 KPBZ 281725
TAFLBE
TAF
KLBE 281725Z 2818/2918 04005KT P6SM SCT040
     FM291400 16005KT P6SM BKN040=



000
FTUS41 KPBZ 281725
TAFZZV
TAF
KZZV 281725Z 2818/2918 04005KT P6SM SCT040
     FM291200 16005KT P6SM VCSH BKN040=



000
FTUS41 KPBZ 281725
TAFPIT
TAF
KPIT 281725Z 2818/2924 04005KT P6SM SCT040
     FM291400 16005KT P6SM BKN040
     FM292000 19005KT P6SM VCTS BKN040CB=



000
FTUS41 KPBZ 281725
TAFMGW
TAF
KMGW 281725Z 2818/2918 02005KT P6SM BKN035
     FM290000 08003KT P6SM SCT040
     FM291400 16005KT P6SM VCSH BKN040=



000
FTUS41 KPBZ 281725
TAFAGC
TAF
KAGC 281725Z 2818/2918 04005KT P6SM SCT040
     FM291400 16005KT P6SM BKN040=



000
FTUS41 KPBZ 281459 AAB
TAFPIT
TAF AMD
KPIT 281459Z 2815/2918 01008KT P6SM BKN250
     FM282300 VRB03KT P6SM SCT080=



000
FTUS41 KPBZ 281415 AAA
TAFBVI
TAF AMD
KBVI 281415Z 2814/2912 36008KT P6SM SCT040
     FM282300 VRB03KT P6SM SCT050=



000
FTUS41 KPBZ 281415 AAA
TAFBVI
TAF AMD
KBVI 281415Z 2814/2912 36008KT P6SM SCT040
     FM282300 VRB03KT P6SM SCT050=



000
FTUS41 KPBZ 281414 AAA
TAFAGC
TAF AMD
KAGC 281414Z 2814/2912 36008KT P6SM SCT040
     FM282300 VRB03KT P6SM SCT050=



000
FTUS41 KPBZ 281414 AAA
TAFAGC
TAF AMD
KAGC 281414Z 2814/2912 36008KT P6SM SCT040
     FM282300 VRB03KT P6SM SCT050=



000
FTUS41 KPBZ 281401 AAA
TAFDUJ
TAF AMD
KDUJ 281401Z 2814/2912 30005KT P6SM BKN015
     FM281500 36008KT P6SM SCT040
     FM282300 VRB05KT P6SM SKC=



000
FTUS41 KPBZ 281400 AAA
TAFZZV
TAF AMD
KZZV 281400Z 2814/2912 03005KT P6SM SCT040
     FM282200 VRB03KT P6SM SCT050=



000
FTUS41 KPBZ 281359 AAA
TAFHLG
TAF AMD
KHLG 281359Z 2814/2912 36008KT P6SM BKN050
     FM282300 VRB03KT P6SM SCT050=



000
FTUS41 KPBZ 281359 AAA
TAFLBE
TAF AMD
KLBE 281359Z 2814/2912 36008KT P6SM BKN040
     FM282300 VRB03KT P6SM SCT080=



000
FTUS41 KPBZ 281351 AAA
TAFPIT
TAF AMD
KPIT 281351Z 2814/2918 36008KT P6SM SCT040
     FM282300 VRB03KT P6SM SCT080=



000
FTUS41 KPBZ 281128
TAFDUJ
TAF
KDUJ 281128Z 2812/2912 30005KT P6SM SCT008 BKN020
      TEMPO 2812/2814 BKN008
     FM281500 36008KT P6SM SCT040
     FM282300 VRB05KT P6SM SKC=



000
FTUS41 KPBZ 281128
TAFLBE
TAF
KLBE 281128Z 2812/2912 32005KT P6SM SCT020
      TEMPO 2812/2815 BKN020
     FM281500 36008KT P6SM BKN040
     FM282300 VRB03KT P6SM SCT050=



000
FTUS41 KPBZ 281128
TAFZZV
TAF
KZZV 281128Z 2812/2912 VRB03KT P6SM SCT020
      TEMPO 2813/2815 BKN020
     FM281500 03005KT P6SM BKN040
     FM282200 VRB03KT P6SM SCT050=



000
FTUS41 KPBZ 281128
TAFHLG
TAF
KHLG 281128Z 2812/2912 32005KT P6SM SCT020
      TEMPO 2813/2815 BKN020
     FM281500 36008KT P6SM BKN040
     FM282300 VRB03KT P6SM SCT050=



000
FTUS41 KPBZ 281128
TAFBVI
TAF
KBVI 281128Z 2812/2912 32005KT P6SM SCT015
      TEMPO 2812/2815 BKN015
     FM281500 36008KT P6SM BKN040
     FM282300 VRB03KT P6SM SCT050=



000
FTUS41 KPBZ 281128
TAFMGW
TAF
KMGW 281128Z 2812/2912 22005KT P6SM SCT020
      TEMPO 2813/2815 BKN020
     FM281500 34005KT P6SM BKN040
     FM282300 VRB03KT P6SM SCT050=



000
FTUS41 KPBZ 281128
TAFBVI
TAF
KBVI 281128Z 2812/2912 32005KT P6SM SCT015
      TEMPO 2812/2815 BKN015
     FM281500 36008KT P6SM BKN040
     FM282300 VRB03KT P6SM SCT050=



000
FTUS41 KPBZ 281128
TAFMGW
TAF
KMGW 281128Z 2812/2912 22005KT P6SM SCT020
      TEMPO 2813/2815 BKN020
     FM281500 34005KT P6SM BKN040
     FM282300 VRB03KT P6SM SCT050=



000
FTUS41 KPBZ 281128
TAFZZV
TAF
KZZV 281128Z 2812/2912 VRB03KT P6SM SCT020
      TEMPO 2813/2815 BKN020
     FM281500 03005KT P6SM BKN040
     FM282200 VRB03KT P6SM SCT050=



000
FTUS41 KPBZ 281128
TAFPIT
TAF
KPIT 281128Z 2812/2918 32005KT P6SM SCT020
      TEMPO 2813/2815 BKN020
     FM281500 36008KT P6SM BKN040
     FM282300 VRB03KT P6SM SCT050=



000
FTUS41 KPBZ 281128
TAFDUJ
TAF
KDUJ 281128Z 2812/2912 30005KT P6SM SCT008 BKN020
      TEMPO 2812/2814 BKN008
     FM281500 36008KT P6SM SCT040
     FM282300 VRB05KT P6SM SKC=



000
FTUS41 KPBZ 281128
TAFLBE
TAF
KLBE 281128Z 2812/2912 32005KT P6SM SCT020
      TEMPO 2812/2815 BKN020
     FM281500 36008KT P6SM BKN040
     FM282300 VRB03KT P6SM SCT050=



000
FTUS41 KPBZ 281128
TAFAGC
TAF
KAGC 281128Z 2812/2912 32005KT P6SM SCT020
      TEMPO 2813/2815 BKN020
     FM281500 36008KT P6SM BKN040
     FM282300 VRB03KT P6SM SCT050=



000
FTUS41 KPBZ 281128
TAFHLG
TAF
KHLG 281128Z 2812/2912 32005KT P6SM SCT020
      TEMPO 2813/2815 BKN020
     FM281500 36008KT P6SM BKN040
     FM282300 VRB03KT P6SM SCT050=



000
FTUS41 KPBZ 281128
TAFAGC
TAF
KAGC 281128Z 2812/2912 32005KT P6SM SCT020
      TEMPO 2813/2815 BKN020
     FM281500 36008KT P6SM BKN040
     FM282300 VRB03KT P6SM SCT050=



000
FTUS41 KPBZ 281128
TAFPIT
TAF
KPIT 281128Z 2812/2918 32005KT P6SM SCT020
      TEMPO 2813/2815 BKN020
     FM281500 36008KT P6SM BKN040
     FM282300 VRB03KT P6SM SCT050=



000
FTUS41 KPBZ 280927 AAA
TAFDUJ
TAF AMD
KDUJ 280927Z 2809/2906 26006KT 1SM BR SCT020 BKN025
      TEMPO 2813/2815 6SM BR
     FM281500 36006KT P6SM SCT070
     FM290000 05004KT P6SM SKC=



000
FTUS41 KPBZ 280856 AAA
TAFPIT
TAF AMD
KPIT 280856Z 2809/2912 24007KT P6SM SCT050 BKN200
     FM281100 30004KT P6SM BKN040
     FM281400 35006KT P6SM SCT040
     FM290200 04004KT P6SM SKC=



000
FTUS41 KPBZ 280856 AAA
TAFPIT
TAF AMD
KPIT 280856Z 2809/2912 24007KT P6SM SCT050 BKN200
     FM281100 30004KT P6SM BKN040
     FM281400 35006KT P6SM SCT040
     FM290200 04004KT P6SM SKC=



000
FTUS41 KPBZ 280529
TAFBVI
TAF
KBVI 280529Z 2806/2906 21008KT P6SM BKN040
     FM281000 30004KT P6SM BKN025 BKN040
     FM281400 35006KT P6SM SCT040
     FM290200 04004KT P6SM SKC
      AMD NOT SKED=



000
FTUS41 KPBZ 280529
TAFZZV
TAF
KZZV 280529Z 2806/2906 26005KT P6SM BKN100
     FM281100 02004KT P6SM BKN030
     FM281400 05004KT P6SM SCT040
     FM290100 08004KT P6SM SKC=



000
FTUS41 KPBZ 280529
TAFDUJ
TAF
KDUJ 280529Z 2806/2906 22011KT 6SM -RA BKN035 OVC080
      TEMPO 2806/2809 3SM -SHRA BKN015 OVC060
     FM280900 31006KT 4SM BR BKN070
     FM281500 36006KT P6SM SCT070
     FM290000 05004KT P6SM SKC=



000
FTUS41 KPBZ 280529
TAFLBE
TAF
KLBE 280529Z 2806/2906 VRB04KT P6SM SCT040 SCT120
     FM281100 29004KT P6SM BKN025 BKN040
     FM281400 32006KT P6SM SCT040
     FM290200 VRB04KT P6SM SKC=



000
FTUS41 KPBZ 280529
TAFAGC
TAF
KAGC 280529Z 2806/2906 21007KT P6SM SCT040
     FM281100 30004KT P6SM BKN025 BKN040
     FM281400 35006KT P6SM SCT040
     FM290200 04004KT P6SM SKC=



000
FTUS41 KPBZ 280529
TAFPIT
TAF
KPIT 280529Z 2806/2912 24007KT P6SM SCT040
     FM281100 30004KT P6SM BKN025 BKN040
     FM281400 35006KT P6SM SCT040
     FM290200 04004KT P6SM SKC=



000
FTUS41 KPBZ 280529
TAFHLG
TAF
KHLG 280529Z 2806/2906 22005KT P6SM SCT040
     FM281100 28004KT P6SM BKN025 BKN040
     FM281500 36006KT P6SM SCT040
     FM290200 03004KT P6SM SKC
      AMD NOT SKED=



000
FTUS41 KPBZ 280529
TAFMGW
TAF
KMGW 280529Z 2806/2906 20006KT P6SM SCT040 SCT100
     FM281200 24004KT P6SM BKN040
     FM281600 32006KT P6SM BKN035
     FM290300 04004KT P6SM SCT035=



000
FTUS41 KPBZ 280257 AAA
TAFPIT
TAF AMD
KPIT 280257Z 2803/2906 19005KT P6SM SCT060
     FM280330 21009G25KT P6SM VCSH BKN040
     FM280500 21008KT P6SM BKN040
     FM281000 30004KT P6SM BKN025 BKN040
     FM281400 36006KT P6SM SCT040=



000
FTUS41 KPBZ 272320
TAFZZV
TAF
KZZV 272320Z 2800/2824 20011KT P6SM SCT060
     FM280700 26005KT P6SM -SHRA BKN030
      TEMPO 2808/2812 2SM BR OVC012
     FM281300 02004KT P6SM BKN030=



000
FTUS41 KPBZ 272320
TAFPIT
TAF
KPIT 272320Z 2800/2906 22009KT P6SM SCT060
     FM280400 21004KT P6SM VCSH BKN040
     FM281000 30004KT P6SM BKN025 BKN040
     FM281400 36006KT P6SM SCT040=



000
FTUS41 KPBZ 272320
TAFDUJ
TAF
KDUJ 272320Z 2800/2824 22011KT P6SM SCT045
     FM280300 22008KT 3SM TSRA BKN025 OVC040CB
     FM280500 26006KT P6SM VCSH SCT025 OVC040
     FM280900 31006KT 4SM BR BKN009
     FM281500 36008KT P6SM SKC=



000
FTUS41 KPBZ 272320
TAFAGC
TAF
KAGC 272320Z 2800/2824 22009KT P6SM SCT060
     FM280400 21004KT P6SM VCSH BKN040
     FM281000 30004KT P6SM BKN025 BKN040
     FM281400 36006KT P6SM SCT040=



000
FTUS41 KPBZ 272320
TAFMGW
TAF
KMGW 272320Z 2800/2824 20007KT P6SM SCT045
     FM280900 19005KT P6SM VCSH BKN040
     FM281200 26004KT P6SM BKN025
     FM281500 32006KT P6SM BKN030=



000
FTUS41 KPBZ 272320
TAFHLG
TAF
KHLG 272320Z 2800/2824 22009KT P6SM SCT060
     FM280200 21004KT P6SM VCSH BKN040
     FM281000 30004KT P6SM SCT010 BKN025 BKN040
     FM281800 36006KT P6SM SCT040=



000
FTUS41 KPBZ 272320
TAFBVI
TAF
KBVI 272320Z 2800/2824 22009KT P6SM SCT050
     FM280400 21004KT P6SM VCSH BKN040
     FM281000 30004KT P6SM BKN025 BKN040
     FM281400 36006KT P6SM SCT040=



000
FTUS41 KPBZ 272320
TAFLBE
TAF
KLBE 272320Z 2800/2824 22012KT P6SM SCT050
     FM280400 21004KT P6SM VCSH BKN040
     FM281000 30004KT P6SM BKN025 BKN040
     FM281400 36006KT P6SM SCT040=



000
FTUS41 KPBZ 272320
TAFHLG
TAF
KHLG 272320Z 2800/2824 22009KT P6SM SCT060
     FM280200 21004KT P6SM VCSH BKN040
     FM281000 30004KT P6SM SCT010 BKN025 BKN040
     FM281800 36006KT P6SM SCT040=



000
FTUS41 KPBZ 272320
TAFBVI
TAF
KBVI 272320Z 2800/2824 22009KT P6SM SCT050
     FM280400 21004KT P6SM VCSH BKN040
     FM281000 30004KT P6SM BKN025 BKN040
     FM281400 36006KT P6SM SCT040=



000
FTUS41 KPBZ 272320
TAFPIT
TAF
KPIT 272320Z 2800/2906 22009KT P6SM SCT060
     FM280400 21004KT P6SM VCSH BKN040
     FM281000 30004KT P6SM BKN025 BKN040
     FM281400 36006KT P6SM SCT040=



000
FTUS41 KPBZ 272320
TAFDUJ
TAF
KDUJ 272320Z 2800/2824 22011KT P6SM SCT045
     FM280300 22008KT 3SM TSRA BKN025 OVC040CB
     FM280500 26006KT P6SM VCSH SCT025 OVC040
     FM280900 31006KT 4SM BR BKN009
     FM281500 36008KT P6SM SKC=



000
FTUS41 KPBZ 272320
TAFMGW
TAF
KMGW 272320Z 2800/2824 20007KT P6SM SCT045
     FM280900 19005KT P6SM VCSH BKN040
     FM281200 26004KT P6SM BKN025
     FM281500 32006KT P6SM BKN030=



000
FTUS41 KPBZ 272320
TAFLBE
TAF
KLBE 272320Z 2800/2824 22012KT P6SM SCT050
     FM280400 21004KT P6SM VCSH BKN040
     FM281000 30004KT P6SM BKN025 BKN040
     FM281400 36006KT P6SM SCT040=



000
FTUS41 KPBZ 272055 AAA
TAFPIT
TAF AMD
KPIT 272055Z 2721/2824 20010KT P6SM SCT045 SCT060 BKN250
     FM280300 21006KT P6SM VCSH OVC040
     FM280800 26006KT P6SM BKN025
     FM281400 31006KT P6SM SCT040=



000
FTUS41 KPBZ 272055 AAA
TAFPIT
TAF AMD
KPIT 272055Z 2721/2824 20010KT P6SM SCT045 SCT060 BKN250
     FM280300 21006KT P6SM VCSH OVC040
     FM280800 26006KT P6SM BKN025
     FM281400 31006KT P6SM SCT040=



000
FTUS41 KPBZ 271730
TAFDUJ
TAF
KDUJ 271730Z 2718/2818 24013KT P6SM BKN035
     FM280300 23006KT P6SM -SHRA BKN040
     FM280700 26006KT P6SM BKN015
     FM281400 30008KT P6SM SCT035=



000
FTUS41 KPBZ 271730
TAFBVI
TAF
KBVI 271730Z 2718/2818 21012KT P6SM BKN035
     FM280100 21006KT P6SM VCTS OVC040CB
     FM280600 26006KT P6SM BKN025
     FM281400 31006KT P6SM SCT040=



000
FTUS41 KPBZ 271730
TAFDUJ
TAF
KDUJ 271730Z 2718/2818 24013KT P6SM BKN035
     FM280300 23006KT P6SM -SHRA BKN040
     FM280700 26006KT P6SM BKN015
     FM281400 30008KT P6SM SCT035=



000
FTUS41 KPBZ 271730
TAFAGC
TAF
KAGC 271730Z 2718/2818 21012KT P6SM BKN035
     FM280300 21006KT P6SM VCSH OVC040
     FM280800 26006KT P6SM BKN025
     FM281400 32006KT P6SM BKN080=



000
FTUS41 KPBZ 271730
TAFZZV
TAF
KZZV 271730Z 2718/2818 23012KT P6SM BKN035
     FM280000 21006KT P6SM VCTS OVC040CB
     FM280500 26006KT P6SM BKN025
     FM281300 31006KT P6SM SCT040=



000
FTUS41 KPBZ 271730
TAFMGW
TAF
KMGW 271730Z 2718/2818 22008KT P6SM BKN035
     FM280600 21005KT P6SM VCSH OVC040
     FM281000 26004KT P6SM BKN025
     FM281500 29006KT P6SM SCT040=



000
FTUS41 KPBZ 271730
TAFHLG
TAF
KHLG 271730Z 2718/2818 21012KT P6SM BKN035
     FM280000 21006KT P6SM VCTS OVC040CB
     FM280500 26006KT P6SM BKN025
     FM281300 31006KT P6SM SCT040=



000
FTUS41 KPBZ 271730
TAFPIT
TAF
KPIT 271730Z 2718/2824 21012KT P6SM BKN035
     FM280300 21006KT P6SM VCSH OVC040
     FM280800 26006KT P6SM BKN025
     FM281400 31006KT P6SM SCT040=



000
FTUS41 KPBZ 271730
TAFLBE
TAF
KLBE 271730Z 2718/2818 22012KT P6SM BKN035
     FM280500 21005KT P6SM VCSH OVC040
     FM281000 26004KT P6SM BKN025
     FM281500 29006KT P6SM SCT040=



000
FTUS41 KPBZ 271610 AAA
TAFDUJ
TAF AMD
KDUJ 271610Z 2716/2812 23008KT P6SM BKN025
     FM271900 22010KT P6SM BKN040
     FM280400 23006KT P6SM BKN080=



000
FTUS41 KPBZ 271506 AAA
TAFPIT
TAF AMD
KPIT 271506Z 2715/2818 21006KT P6SM BKN035
     FM280500 24006KT P6SM VCSH OVC040
     FM281300 31005KT P6SM SCT040=



000
FTUS41 KPBZ 271457 AAA
TAFBVI
TAF AMD
KBVI 271457Z 2715/2812 21006KT P6SM BKN025
     FM271600 22010KT P6SM BKN050
     FM280400 24006KT 6SM -RA OVC040
     FM280800 25004KT P6SM BKN080=



000
FTUS41 KPBZ 271457 AAA
TAFAGC
TAF AMD
KAGC 271457Z 2715/2812 19007KT P6SM BKN025
     FM271600 21011KT P6SM BKN050
     FM280500 24006KT P6SM VCSH OVC040
     FM280900 25004KT P6SM BKN080=



000
FTUS41 KPBZ 271457 AAA
TAFBVI
TAF AMD
KBVI 271457Z 2715/2812 21006KT P6SM BKN025
     FM271600 22010KT P6SM BKN050
     FM280400 24006KT 6SM -RA OVC040
     FM280800 25004KT P6SM BKN080=



000
FTUS41 KPBZ 271137
TAFAGC
TAF
KAGC 271137Z 2712/2812 19007KT P6SM -SHRA BKN025
     FM271500 21011KT P6SM BKN050
     FM280500 24006KT P6SM VCSH OVC040
     FM280900 25004KT P6SM BKN080=



000
FTUS41 KPBZ 271137
TAFLBE
TAF
KLBE 271137Z 2712/2812 18005KT P6SM -SHRA BKN025
     FM271600 22011KT P6SM BKN050
     FM280500 24005KT P6SM VCSH OVC040
     FM281000 25004KT P6SM BKN080=



000
FTUS41 KPBZ 271137
TAFMGW
TAF
KMGW 271137Z 2712/2812 18005KT P6SM -SHRA BKN025
     FM271600 20008KT P6SM BKN050
     FM280500 19006KT P6SM VCSH OVC040
     FM281000 VRB04KT P6SM BKN080=



000
FTUS41 KPBZ 271137
TAFZZV
TAF
KZZV 271137Z 2712/2812 22004KT P6SM BKN015
     FM271400 21010KT P6SM BKN060
     FM280100 22006KT 6SM -RA VCTS OVC040CB
     FM280600 VRB04KT P6SM BKN080=



000
FTUS41 KPBZ 271137
TAFPIT
TAF
KPIT 271137Z 2712/2818 21006KT P6SM BKN025
     FM271500 22010KT P6SM BKN050
     FM280500 24006KT P6SM VCSH OVC040
     FM281300 31005KT P6SM SCT040=



000
FTUS41 KPBZ 271137
TAFBVI
TAF
KBVI 271137Z 2712/2812 21006KT P6SM BKN025
     FM271500 22010KT P6SM BKN050
     FM280400 24006KT 6SM -RA OVC040
     FM280800 25004KT P6SM BKN080=



000
FTUS41 KPBZ 271137
TAFHLG
TAF
KHLG 271137Z 2712/2812 18005KT P6SM BKN015
     FM271500 22010KT P6SM BKN050
     FM280300 23007KT P6SM VCSH OVC040
     FM280800 24005KT P6SM BKN080=



000
FTUS41 KPBZ 271137
TAFDUJ
TAF
KDUJ 271137Z 2712/2812 21008KT P6SM -SHRA BKN015
     FM271600 22010KT P6SM BKN040
     FM280400 23006KT P6SM BKN080=



000
FTUS41 KPBZ 271137
TAFBVI
TAF
KBVI 271137Z 2712/2812 21006KT P6SM BKN025
     FM271500 22010KT P6SM BKN050
     FM280400 24006KT 6SM -RA OVC040
     FM280800 25004KT P6SM BKN080=



000
FTUS41 KPBZ 271137
TAFZZV
TAF
KZZV 271137Z 2712/2812 22004KT P6SM BKN015
     FM271400 21010KT P6SM BKN060
     FM280100 22006KT 6SM -RA VCTS OVC040CB
     FM280600 VRB04KT P6SM BKN080=



000
FTUS41 KPBZ 271137
TAFDUJ
TAF
KDUJ 271137Z 2712/2812 21008KT P6SM -SHRA BKN015
     FM271600 22010KT P6SM BKN040
     FM280400 23006KT P6SM BKN080=



000
FTUS41 KPBZ 271137
TAFLBE
TAF
KLBE 271137Z 2712/2812 18005KT P6SM -SHRA BKN025
     FM271600 22011KT P6SM BKN050
     FM280500 24005KT P6SM VCSH OVC040
     FM281000 25004KT P6SM BKN080=



000
FTUS41 KPBZ 271137
TAFHLG
TAF
KHLG 271137Z 2712/2812 18005KT P6SM BKN015
     FM271500 22010KT P6SM BKN050
     FM280300 23007KT P6SM VCSH OVC040
     FM280800 24005KT P6SM BKN080=



000
FTUS41 KPBZ 271137
TAFPIT
TAF
KPIT 271137Z 2712/2818 21006KT P6SM BKN025
     FM271500 22010KT P6SM BKN050
     FM280500 24006KT P6SM VCSH OVC040
     FM281300 31005KT P6SM SCT040=



000
FTUS41 KPBZ 271137
TAFMGW
TAF
KMGW 271137Z 2712/2812 18005KT P6SM -SHRA BKN025
     FM271600 20008KT P6SM BKN050
     FM280500 19006KT P6SM VCSH OVC040
     FM281000 VRB04KT P6SM BKN080=



000
FTUS41 KPBZ 271137
TAFAGC
TAF
KAGC 271137Z 2712/2812 19007KT P6SM -SHRA BKN025
     FM271500 21011KT P6SM BKN050
     FM280500 24006KT P6SM VCSH OVC040
     FM280900 25004KT P6SM BKN080=



000
FTUS41 KPBZ 270902 AAA
TAFDUJ
TAF AMD
KDUJ 270902Z 2709/2806 21006KT P6SM BKN090
     FM271100 21008KT 6SM BR BKN015
     FM271600 22010KT P6SM BKN040=



000
FTUS41 KPBZ 270900 AAA
TAFLBE
TAF AMD
KLBE 270900Z 2709/2806 20004KT P6SM BKN100
     FM271100 VRB04KT 6SM BR BKN020
     FM271600 22010KT P6SM BKN050
     FM280500 24005KT P6SM VCSH OVC040=



000
FTUS41 KPBZ 270900 AAA
TAFAGC
TAF AMD
KAGC 270900Z 2709/2806 18005KT P6SM BKN100
     FM271000 VRB04KT 3SM BR BKN020
     FM271600 21011KT P6SM BKN050
     FM280500 24006KT 6SM -RA OVC040=



000
FTUS41 KPBZ 270900 AAA
TAFPIT
TAF AMD
KPIT 270900Z 2709/2812 20003KT P6SM BKN100
     FM271000 VRB05KT 5SM BR BKN020
     FM271600 22010KT P6SM BKN050
     FM280500 24006KT 6SM -RA OVC040
     FM280900 25004KT 5SM BR OVC030=



000
FTUS41 KPBZ 270900 AAA
TAFLBE
TAF AMD
KLBE 270900Z 2709/2806 20004KT P6SM BKN100
     FM271100 VRB04KT 6SM BR BKN020
     FM271600 22010KT P6SM BKN050
     FM280500 24005KT P6SM VCSH OVC040=



000
FTUS41 KPBZ 270900 AAA
TAFPIT
TAF AMD
KPIT 270900Z 2709/2812 20003KT P6SM BKN100
     FM271000 VRB05KT 5SM BR BKN020
     FM271600 22010KT P6SM BKN050
     FM280500 24006KT 6SM -RA OVC040
     FM280900 25004KT 5SM BR OVC030=



000
FTUS41 KPBZ 270858 AAA
TAFZZV
TAF AMD
KZZV 270858Z 2709/2806 22004KT 6SM BR BKN015
      TEMPO 2709/2712 3SM BR BKN008
     FM271500 21010KT P6SM BKN060
     FM280100 22006KT 6SM -RA OVC040=



000
FTUS41 KPBZ 270858 AAA
TAFZZV
TAF AMD
KZZV 270858Z 2709/2806 22004KT 6SM BR BKN015
      TEMPO 2709/2712 3SM BR BKN008
     FM271500 21010KT P6SM BKN060
     FM280100 22006KT 6SM -RA OVC040=



000
FTUS41 KPBZ 270531
TAFHLG
TAF
KHLG 270531Z 2706/2806 18005KT 5SM -RA BR OVC050
      TEMPO 2706/2707 2SM RA BR OVC020
     FM270900 VRB04KT 5SM -RA BR OVC020
     FM271600 22010KT P6SM BKN050
     FM280300 23007KT 6SM -RA OVC040
      AMD NOT SKED=



000
FTUS41 KPBZ 270531
TAFAGC
TAF
KAGC 270531Z 2706/2806 18005KT 5SM -RA BKN040
      TEMPO 2706/2707 2SM RA BR OVC020
     FM271000 VRB04KT 3SM BR BKN020
     FM271600 21011KT P6SM BKN050
     FM280500 24006KT 6SM -RA OVC040=



000
FTUS41 KPBZ 270531
TAFDUJ
TAF
KDUJ 270531Z 2706/2806 18007KT P6SM BKN080
     FM270800 20003KT 5SM -RA BR BKN025
      TEMPO 2708/2710 2SM RA OVC015
     FM271100 21008KT 3SM BR BKN015
     FM271600 22010KT P6SM BKN040=



000
FTUS41 KPBZ 270531
TAFMGW
TAF
KMGW 270531Z 2706/2806 18005KT 5SM -RA OVC050
      TEMPO 2706/2708 2SM RA BR OVC020
     FM271100 19004KT 3SM BR BKN025
     FM271600 20008KT P6SM BKN050
     FM280400 19006KT P6SM VCSH OVC040=



000
FTUS41 KPBZ 270531
TAFPIT
TAF
KPIT 270531Z 2706/2812 20003KT 5SM -RA BR BKN040
      TEMPO 2706/2707 2SM RA BR OVC020
     FM271000 VRB05KT 3SM BR BKN020
     FM271600 22010KT P6SM BKN050
     FM280500 24006KT 6SM -RA OVC040
     FM280900 25004KT 5SM BR OVC030=



000
FTUS41 KPBZ 270531
TAFZZV
TAF
KZZV 270531Z 2706/2806 19008KT P6SM BKN100
     FM270800 22004KT 3SM BR SCT100
      TEMPO 2709/2712 1SM BR BKN015
     FM271500 21010KT P6SM BKN060
     FM280100 22006KT 6SM -RA OVC040=



000
FTUS41 KPBZ 270531
TAFBVI
TAF
KBVI 270531Z 2706/2806 18005KT P6SM BKN060
     FM271000 VRB05KT 3SM BR BKN020
     FM271600 22010KT P6SM BKN050
     FM280500 24006KT 6SM -RA OVC040
      AMD NOT SKED=



000
FTUS41 KPBZ 270531
TAFLBE
TAF
KLBE 270531Z 2706/2806 18007KT P6SM BKN080
     FM270700 20004KT 5SM -RA BR BKN040
      TEMPO 2707/2709 2SM RA BR OVC020
     FM271100 VRB04KT 3SM BR BKN015
     FM271600 22010KT P6SM BKN050
     FM280500 24005KT P6SM VCSH OVC040=



000
FTUS41 KPBZ 270531
TAFAGC
TAF
KAGC 270531Z 2706/2806 18005KT 5SM -RA BKN040
      TEMPO 2706/2707 2SM RA BR OVC020
     FM271000 VRB04KT 3SM BR BKN020
     FM271600 21011KT P6SM BKN050
     FM280500 24006KT 6SM -RA OVC040=



000
FTUS41 KPBZ 270531
TAFHLG
TAF
KHLG 270531Z 2706/2806 18005KT 5SM -RA BR OVC050
      TEMPO 2706/2707 2SM RA BR OVC020
     FM270900 VRB04KT 5SM -RA BR OVC020
     FM271600 22010KT P6SM BKN050
     FM280300 23007KT 6SM -RA OVC040
      AMD NOT SKED=



000
FTUS41 KPBZ 270531
TAFLBE
TAF
KLBE 270531Z 2706/2806 18007KT P6SM BKN080
     FM270700 20004KT 5SM -RA BR BKN040
      TEMPO 2707/2709 2SM RA BR OVC020
     FM271100 VRB04KT 3SM BR BKN015
     FM271600 22010KT P6SM BKN050
     FM280500 24005KT P6SM VCSH OVC040=



000
FTUS41 KPBZ 270531
TAFPIT
TAF
KPIT 270531Z 2706/2812 20003KT 5SM -RA BR BKN040
      TEMPO 2706/2707 2SM RA BR OVC020
     FM271000 VRB05KT 3SM BR BKN020
     FM271600 22010KT P6SM BKN050
     FM280500 24006KT 6SM -RA OVC040
     FM280900 25004KT 5SM BR OVC030=



000
FTUS41 KPBZ 270531
TAFBVI
TAF
KBVI 270531Z 2706/2806 18005KT P6SM BKN060
     FM271000 VRB05KT 3SM BR BKN020
     FM271600 22010KT P6SM BKN050
     FM280500 24006KT 6SM -RA OVC040
      AMD NOT SKED=



000
FTUS41 KPBZ 270531
TAFMGW
TAF
KMGW 270531Z 2706/2806 18005KT 5SM -RA OVC050
      TEMPO 2706/2708 2SM RA BR OVC020
     FM271100 19004KT 3SM BR BKN025
     FM271600 20008KT P6SM BKN050
     FM280400 19006KT P6SM VCSH OVC040=



000
FTUS41 KPBZ 270531
TAFDUJ
TAF
KDUJ 270531Z 2706/2806 18007KT P6SM BKN080
     FM270800 20003KT 5SM -RA BR BKN025
      TEMPO 2708/2710 2SM RA OVC015
     FM271100 21008KT 3SM BR BKN015
     FM271600 22010KT P6SM BKN040=



000
FTUS41 KPBZ 270531
TAFZZV
TAF
KZZV 270531Z 2706/2806 19008KT P6SM BKN100
     FM270800 22004KT 3SM BR SCT100
      TEMPO 2709/2712 1SM BR BKN015
     FM271500 21010KT P6SM BKN060
     FM280100 22006KT 6SM -RA OVC040=



000
FTUS41 KPBZ 270450 AAC
TAFMGW
TAF AMD
KMGW 270450Z 2705/2724 18005KT 5SM -RA OVC060
      TEMPO 2705/2707 2SM RA OVC025
     FM271000 20003KT 5SM -RA BR BKN025
     FM271600 21008KT P6SM BKN050=



000
FTUS41 KPBZ 270449 AAC
TAFAGC
TAF AMD
KAGC 270449Z 2705/2724 18007KT 5SM -RA BKN080
      TEMPO 2705/2707 2SM RA BR OVC020
     FM270700 20003KT 5SM -RA BR BKN040
     FM271000 VRB05KT 2SM BR BKN025
     FM271600 22010KT P6SM BKN050=



000
FTUS41 KPBZ 270449 AAC
TAFAGC
TAF AMD
KAGC 270449Z 2705/2724 18007KT 5SM -RA BKN080
      TEMPO 2705/2707 2SM RA BR OVC020
     FM270700 20003KT 5SM -RA BR BKN040
     FM271000 VRB05KT 2SM BR BKN025
     FM271600 22010KT P6SM BKN050=



000
FTUS41 KPBZ 270448 AAC
TAFPIT
TAF AMD
KPIT 270448Z 2705/2806 20003KT 5SM -RA BR BKN040
      TEMPO 2705/2707 2SM RA BR OVC020
     FM271000 VRB05KT 3SM BR BKN025
     FM271600 22010KT P6SM BKN050
     FM280000 20008KT P6SM SCT050=



000
FTUS41 KPBZ 270244 AAA
TAFDUJ
TAF AMD
KDUJ 270244Z 2703/2724 18007KT P6SM BKN080
     FM270700 20003KT 5SM -RA BR BKN025
     FM271100 21008KT 3SM BR BKN015
     FM271600 22010KT P6SM BKN040=



000
FTUS41 KPBZ 270244 AAA
TAFDUJ
TAF AMD
KDUJ 270244Z 2703/2724 18007KT P6SM BKN080
     FM270700 20003KT 5SM -RA BR BKN025
     FM271100 21008KT 3SM BR BKN015
     FM271600 22010KT P6SM BKN040=



000
FTUS41 KPBZ 270243 AAB
TAFLBE
TAF AMD
KLBE 270243Z 2703/2724 18007KT P6SM BKN080
     FM270700 20003KT 5SM -RA BR BKN040
     FM271100 VRB05KT 3SM BR BKN015
     FM271600 22010KT P6SM BKN050=



000
FTUS41 KPBZ 270242 AAB
TAFAGC
TAF AMD
KAGC 270242Z 2703/2724 18007KT P6SM BKN080
      TEMPO 2703/2705 3SM -TSRA BKN035CB
     FM270500 20003KT 5SM -RA BR BKN040
     FM271000 VRB05KT 2SM BR BKN025
     FM271600 22010KT P6SM BKN050=



000
FTUS41 KPBZ 270242 AAB
TAFAGC
TAF AMD
KAGC 270242Z 2703/2724 18007KT P6SM BKN080
      TEMPO 2703/2705 3SM -TSRA BKN035CB
     FM270500 20003KT 5SM -RA BR BKN040
     FM271000 VRB05KT 2SM BR BKN025
     FM271600 22010KT P6SM BKN050=



000
FTUS41 KPBZ 270240 AAB
TAFPIT
TAF AMD
KPIT 270240Z 2703/2806 18007KT P6SM BKN080
      TEMPO 2703/2705 3SM -TSRA BKN035CB
     FM270500 20003KT 5SM -RA BR BKN040
     FM271000 VRB05KT 3SM BR BKN025
     FM271600 22010KT P6SM BKN050
     FM280000 20008KT P6SM SCT050=



000
FTUS41 KPBZ 270240 AAB
TAFMGW
TAF AMD
KMGW 270240Z 2703/2724 18005KT P6SM BKN080
      TEMPO 2703/2705 3SM -TSRA BKN025CB
     FM271000 20003KT 5SM -RA BR BKN025
     FM271600 21008KT P6SM BKN050=



000
FTUS41 KPBZ 270233 AAD
TAFZZV
TAF AMD
KZZV 270233Z 2703/2724 22008KT 5SM -RA BR BKN025
     FM270900 22004KT 3SM BR BKN010
     FM271500 21008KT P6SM BKN060=



000
FTUS41 KPBZ 270203 AAC
TAFZZV
TAF AMD
KZZV 270203Z 2702/2724 19007KT 5SM -RA BKN060
      TEMPO 2702/2703 2SM -TSRA BR BKN035CB
     FM270600 20007KT 5SM BR BKN015
     FM271500 21008KT P6SM BKN060=



000
FTUS41 KPBZ 270146 AAB
TAFZZV
TAF AMD
KZZV 270146Z 2702/2724 19007KT 5SM -RA BKN060
      TEMPO 2702/2703 3SM TSRA BKN035CB
     FM270600 20007KT 5SM BR BKN015
     FM271500 21008KT P6SM BKN060=



000
FTUS41 KPBZ 270146 AAB
TAFZZV
TAF AMD
KZZV 270146Z 2702/2724 19007KT 5SM -RA BKN060
      TEMPO 2702/2703 3SM TSRA BKN035CB
     FM270600 20007KT 5SM BR BKN015
     FM271500 21008KT P6SM BKN060=



000
FTUS41 KPBZ 270145 AAA
TAFMGW
TAF AMD
KMGW 270145Z 2702/2724 18005KT P6SM -RA BKN080
      TEMPO 2702/2705 VRB15G35KT 3SM -TSRA BKN035CB
     FM271000 20003KT 5SM -RA BR BKN025
     FM271600 21008KT P6SM BKN050=



000
FTUS41 KPBZ 270145 AAA
TAFLBE
TAF AMD
KLBE 270145Z 2702/2724 18007KT P6SM -RA BKN080
      TEMPO 2703/2706 VRB15G35KT 3SM -TSRA BKN030CB
     FM270600 20003KT 5SM -RA BR BKN040
     FM271100 VRB05KT 5SM -RA BR BKN015
     FM271600 22010KT P6SM BKN050=



000
FTUS41 KPBZ 270145 AAA
TAFLBE
TAF AMD
KLBE 270145Z 2702/2724 18007KT P6SM -RA BKN080
      TEMPO 2703/2706 VRB15G35KT 3SM -TSRA BKN030CB
     FM270600 20003KT 5SM -RA BR BKN040
     FM271100 VRB05KT 5SM -RA BR BKN015
     FM271600 22010KT P6SM BKN050=



000
FTUS41 KPBZ 270144 AAA
TAFAGC
TAF AMD
KAGC 270144Z 2702/2724 18007KT P6SM -RA BKN080
      TEMPO 2703/2705 VRB12G30KT 3SM -TSRA BKN035CB
     FM270500 20003KT 5SM -RA BR BKN040
     FM271000 VRB05KT 5SM -RA BR BKN025
     FM271600 22010KT P6SM BKN050=



000
FTUS41 KPBZ 270143 AAA
TAFPIT
TAF AMD
KPIT 270143Z 2702/2806 18007KT P6SM -RA BKN080
      TEMPO 2703/2705 VRB10G30KT 3SM -TSRA BKN035CB
     FM270500 20003KT 5SM -RA BR BKN040
     FM271000 VRB05KT 5SM -RA BR BKN025
     FM271600 22010KT P6SM BKN050
     FM280000 20008KT P6SM SCT050=



000
FTUS41 KPBZ 270112 AAA
TAFZZV
TAF AMD
KZZV 270112Z 2701/2724 19007KT P6SM -RA BKN040
      TEMPO 2701/2704 1SM TSRA BKN030CB
     FM270800 20007KT 5SM BR BKN015
     FM271500 21008KT P6SM BKN060=



000
FTUS41 KPBZ 270112 AAA
TAFZZV
TAF AMD
KZZV 270112Z 2701/2724 19007KT P6SM -RA BKN040
      TEMPO 2701/2704 1SM TSRA BKN030CB
     FM270800 20007KT 5SM BR BKN015
     FM271500 21008KT P6SM BKN060=



000
FTUS41 KPBZ 262320
TAFBVI
TAF
KBVI 262320Z 2700/2724 18007KT P6SM -RA BKN080
      TEMPO 2700/2702 5SM -TSRA BKN030CB
     FM270500 20003KT 5SM -RA BR BKN040
     FM271000 VRB05KT 5SM -RA BR BKN015
     FM271600 22010KT P6SM BKN050
      AMD NOT SKED 2702/2712=



000
FTUS41 KPBZ 262320
TAFHLG
TAF
KHLG 262320Z 2700/2724 18007KT P6SM -RA BKN080
      TEMPO 2700/2702 5SM -TSRA BKN035CB
     FM270500 20003KT 5SM -RA BR BKN040
     FM271000 VRB05KT 5SM -RA BR BKN025
     FM271600 22010KT P6SM BKN050
      AMD NOT SKED=



000
FTUS41 KPBZ 262320
TAFDUJ
TAF
KDUJ 262320Z 2700/2724 18007KT P6SM BKN080
     FM270700 20003KT 5SM -RA BR BKN025
     FM271100 21008KT 4SM -RA BR BKN015
     FM271600 22010KT P6SM BKN040=



000
FTUS41 KPBZ 262320
TAFZZV
TAF
KZZV 262320Z 2700/2724 19007KT P6SM -RA BKN040
      TEMPO 2700/2702 5SM -TSRA BKN030CB
     FM270800 20007KT 5SM BR BKN015
     FM271500 21008KT P6SM BKN060=



000
FTUS41 KPBZ 262320
TAFMGW
TAF
KMGW 262320Z 2700/2724 18005KT P6SM -RA BKN080
      TEMPO 2700/2703 5SM -TSRA BKN035CB
     FM271000 20003KT 5SM -RA BR BKN025
     FM271600 21008KT P6SM BKN050=



000
FTUS41 KPBZ 262320
TAFPIT
TAF
KPIT 262320Z 2700/2806 18007KT P6SM -RA BKN080
      TEMPO 2700/2702 5SM -TSRA BKN035CB
     FM270500 20003KT 5SM -RA BR BKN040
     FM271000 VRB05KT 5SM -RA BR BKN025
     FM271600 22010KT P6SM BKN050
     FM280000 20008KT P6SM SCT050=



000
FTUS41 KPBZ 262320
TAFAGC
TAF
KAGC 262320Z 2700/2724 18007KT P6SM -RA BKN080
      TEMPO 2700/2702 5SM -TSRA BKN035CB
     FM270500 20003KT 5SM -RA BR BKN040
     FM271000 VRB05KT 5SM -RA BR BKN025
     FM271600 22010KT P6SM BKN050=



000
FTUS41 KPBZ 262320
TAFLBE
TAF
KLBE 262320Z 2700/2724 18007KT P6SM -RA BKN080
      TEMPO 2700/2703 5SM -TSRA BKN030CB
     FM270600 20003KT 5SM -RA BR BKN040
     FM271100 VRB05KT 5SM -RA BR BKN015
     FM271600 22010KT P6SM BKN050=



000
FTUS41 KPBZ 262109 AAA
TAFZZV
TAF AMD
KZZV 262109Z 2621/2718 18010KT 6SM -RA BKN060
      TEMPO 2621/2701 3SM -TSRA BKN030CB
     FM270200 20007KT 5SM -RA BR BKN035
     FM271200 21008KT P6SM BKN040=



000
FTUS41 KPBZ 262055 AAA
TAFPIT
TAF AMD
KPIT 262055Z 2621/2724 19008KT P6SM BKN040
     FM270000 18007KT P6SM VCSH BKN050
      TEMPO 2701/2705 3SM -SHRA BKN025
     FM270500 20003KT 5SM BR BKN025
     FM271300 21008KT P6SM BKN035=



000
FTUS41 KPBZ 262055 AAA
TAFPIT
TAF AMD
KPIT 262055Z 2621/2724 19008KT P6SM BKN040
     FM270000 18007KT P6SM VCSH BKN050
      TEMPO 2701/2705 3SM -SHRA BKN025
     FM270500 20003KT 5SM BR BKN025
     FM271300 21008KT P6SM BKN035=



000
FTUS41 KPBZ 261915 AAA
TAFBVI
TAF AMD
KBVI 261915Z 2619/2718 18009G18KT P6SM BKN100
      TEMPO 2619/2621 BKN025
     FM270000 18005KT P6SM VCSH BKN050
      TEMPO 2701/2705 3SM -SHRA BKN025
     FM270500 20003KT 5SM BR BKN025
     FM271300 21008KT P6SM BKN035=



000
FTUS41 KPBZ 261905 AAB
TAFLBE
TAF AMD
KLBE 261905Z 2619/2718 20008KT P6SM BKN080
     FM270100 18005KT P6SM VCSH BKN050
      TEMPO 2702/2706 3SM -SHRA BKN025
     FM270600 20003KT 5SM BR BKN025
     FM271300 21008KT P6SM BKN035=



000
FTUS41 KPBZ 261808 AAA
TAFLBE
TAF AMD
KLBE 261808Z 2618/2718 20008KT P6SM BKN040
      TEMPO 2618/2620 22010G20KT 2SM -SHRA BKN025
     FM270100 18005KT P6SM VCSH BKN050
      TEMPO 2702/2706 3SM -SHRA BKN025
     FM270600 20003KT 5SM BR BKN025
     FM271300 21008KT P6SM BKN035=



000
FTUS41 KPBZ 261808 AAA
TAFLBE
TAF AMD
KLBE 261808Z 2618/2718 20008KT P6SM BKN040
      TEMPO 2618/2620 22010G20KT 2SM -SHRA BKN025
     FM270100 18005KT P6SM VCSH BKN050
      TEMPO 2702/2706 3SM -SHRA BKN025
     FM270600 20003KT 5SM BR BKN025
     FM271300 21008KT P6SM BKN035=



000
FTUS41 KPBZ 261721
TAFDUJ
TAF
KDUJ 261721Z 2618/2718 20008G16KT P6SM BKN040
      TEMPO 2618/2620 -SHRA
     FM270200 18005KT P6SM VCSH BKN040
      TEMPO 2703/2707 3SM -SHRA BKN015
     FM270700 20003KT 3SM BR BKN015
     FM271400 21008KT P6SM BKN035=



000
FTUS41 KPBZ 261721
TAFBVI
TAF
KBVI 261721Z 2618/2718 18009G18KT P6SM BKN040
     FM270000 18005KT P6SM VCSH BKN050
      TEMPO 2701/2705 3SM -SHRA BKN025
     FM270500 20003KT 5SM BR BKN025
     FM271300 21008KT P6SM BKN035=



000
FTUS41 KPBZ 261721
TAFAGC
TAF
KAGC 261721Z 2618/2718 20008G16KT P6SM BKN040
     FM270000 18005KT P6SM VCSH BKN050
      TEMPO 2701/2705 3SM -SHRA BKN025
     FM270500 20003KT 5SM BR BKN025
     FM271300 21008KT P6SM BKN035=



000
FTUS41 KPBZ 261721
TAFHLG
TAF
KHLG 261721Z 2618/2718 18009G18KT P6SM BKN040
     FM262300 18005KT P6SM VCSH BKN050
      TEMPO 2700/2704 3SM -SHRA BKN025
     FM270400 20003KT 5SM BR BKN025
     FM271300 21008KT P6SM BKN035=



000
FTUS41 KPBZ 261721
TAFMGW
TAF
KMGW 261721Z 2618/2718 18006KT P6SM BKN040
     FM270000 18005KT P6SM VCSH BKN050
      TEMPO 2701/2705 3SM -SHRA BKN025
     FM270500 20003KT 5SM -SHRA BR BKN025
     FM271300 21008KT P6SM BKN035=



000
FTUS41 KPBZ 261721
TAFZZV
TAF
KZZV 261721Z 2618/2718 18009G18KT P6SM BKN040
     FM262100 19007KT P6SM VCTS BKN040CB
      TEMPO 2622/2702 2SM -TSRA BKN025CB
     FM270200 20007KT 5SM BR BKN020
     FM271200 21008KT P6SM BKN040=



000
FTUS41 KPBZ 261721
TAFPIT
TAF
KPIT 261721Z 2618/2724 19008G16KT P6SM BKN040
     FM270000 18007KT P6SM VCSH BKN050
      TEMPO 2701/2705 3SM -SHRA BKN025
     FM270500 20003KT 5SM BR BKN025
     FM271300 21008KT P6SM BKN035=



000
FTUS41 KPBZ 261721
TAFLBE
TAF
KLBE 261721Z 2618/2718 20008KT P6SM BKN040
      TEMPO 2618/2619 22010G20KT -SHRA
     FM270100 18005KT P6SM VCSH BKN050
      TEMPO 2702/2706 3SM -SHRA BKN025
     FM270600 20003KT 5SM BR BKN025
     FM271300 21008KT P6SM BKN035=



000
FTUS41 KPBZ 261538 AAB
TAFMGW
TAF AMD
KMGW 261538Z 2616/2712 19006KT P6SM -SHRA BKN028
     FM261800 20008KT P6SM BKN080
     FM270200 18005KT P6SM VCSH BKN050
     FM270800 20007KT 5SM BR BKN025=



000
FTUS41 KPBZ 261516 AAB
TAFHLG
TAF AMD
KHLG 261516Z 2615/2712 18006KT P6SM VCSH SCT040 BKN080
      TEMPO 2615/2618 -SHRA
     FM261800 20008KT P6SM BKN100
     FM270100 18005KT P6SM VCSH BKN050
     FM270500 20007KT 5SM BR BKN025=



000
FTUS41 KPBZ 261515 AAC
TAFDUJ
TAF AMD
KDUJ 261515Z 2615/2712 21006KT P6SM SCT020 BKN050
      TEMPO 2615/2618 -SHRA BKN020
     FM261900 20008KT P6SM BKN100
     FM270300 18005KT P6SM VCSH BKN050
     FM270600 20007KT 5SM BR BKN025=



000
FTUS41 KPBZ 261515 AAC
TAFDUJ
TAF AMD
KDUJ 261515Z 2615/2712 21006KT P6SM SCT020 BKN050
      TEMPO 2615/2618 -SHRA BKN020
     FM261900 20008KT P6SM BKN100
     FM270300 18005KT P6SM VCSH BKN050
     FM270600 20007KT 5SM BR BKN025=



000
FTUS41 KPBZ 261458 AAB
TAFPIT
TAF AMD
KPIT 261458Z 2615/2718 18006KT P6SM VCSH SCT040 BKN080
      TEMPO 2615/2618 -SHRA
     FM261800 20008KT P6SM BKN100
     FM270100 18005KT P6SM VCSH BKN050
     FM270500 20007KT 5SM BR BKN025=



000
FTUS41 KPBZ 261458 AAB
TAFPIT
TAF AMD
KPIT 261458Z 2615/2718 18006KT P6SM VCSH SCT040 BKN080
      TEMPO 2615/2618 -SHRA
     FM261800 20008KT P6SM BKN100
     FM270100 18005KT P6SM VCSH BKN050
     FM270500 20007KT 5SM BR BKN025=



000
FTUS41 KPBZ 261334 AAB
TAFDUJ
TAF AMD
KDUJ 261334Z 2614/2712 17005KT P6SM SCT040 BKN100
     FM261600 18006KT P6SM VCSH BKN050
     FM261900 20008KT P6SM BKN100
     FM270300 18005KT P6SM VCSH BKN050
     FM270600 20007KT 5SM BR BKN025=



000
FTUS41 KPBZ 261334 AAB
TAFDUJ
TAF AMD
KDUJ 261334Z 2614/2712 17005KT P6SM SCT040 BKN100
     FM261600 18006KT P6SM VCSH BKN050
     FM261900 20008KT P6SM BKN100
     FM270300 18005KT P6SM VCSH BKN050
     FM270600 20007KT 5SM BR BKN025=



000
FTUS41 KPBZ 261332 AAA
TAFZZV
TAF AMD
KZZV 261332Z 2614/2712 20008KT P6SM VCSH BKN050
     FM261600 20008KT P6SM BKN100
     FM262200 19007KT P6SM VCTS BKN040CB
     FM270300 20007KT 5SM BR BKN020=



000
FTUS41 KPBZ 261332 AAA
TAFZZV
TAF AMD
KZZV 261332Z 2614/2712 20008KT P6SM VCSH BKN050
     FM261600 20008KT P6SM BKN100
     FM262200 19007KT P6SM VCTS BKN040CB
     FM270300 20007KT 5SM BR BKN020=



000
FTUS41 KPBZ 261331 AAA
TAFHLG
TAF AMD
KHLG 261331Z 2614/2712 18006KT P6SM VCSH SCT040 BKN080
     FM261800 20008KT P6SM BKN100
     FM270100 18005KT P6SM VCSH BKN050
     FM270500 20007KT 5SM BR BKN025=



000
FTUS41 KPBZ 261331 AAA
TAFHLG
TAF AMD
KHLG 261331Z 2614/2712 18006KT P6SM VCSH SCT040 BKN080
     FM261800 20008KT P6SM BKN100
     FM270100 18005KT P6SM VCSH BKN050
     FM270500 20007KT 5SM BR BKN025=



000
FTUS41 KPBZ 261330 AAA
TAFBVI
TAF AMD
KBVI 261330Z 2614/2712 18006KT P6SM VCSH SCT040 BKN080
     FM261800 20008KT P6SM BKN100
     FM270100 18005KT P6SM VCSH BKN050
     FM270500 20007KT 5SM BR BKN025=



000
FTUS41 KPBZ 261330 AAA
TAFPIT
TAF AMD
KPIT 261330Z 2614/2718 18006KT P6SM VCSH SCT040 BKN080
     FM261800 20008KT P6SM BKN100
     FM270100 18005KT P6SM VCSH BKN050
     FM270500 20007KT 5SM BR BKN025=



000
FTUS41 KPBZ 261330 AAA
TAFAGC
TAF AMD
KAGC 261330Z 2614/2712 18006KT P6SM VCSH SCT040 BKN080
     FM261800 20008KT P6SM BKN100
     FM270100 18005KT P6SM VCSH BKN050
     FM270500 20007KT 5SM BR BKN025=



000
FTUS41 KPBZ 261330 AAA
TAFPIT
TAF AMD
KPIT 261330Z 2614/2718 18006KT P6SM VCSH SCT040 BKN080
     FM261800 20008KT P6SM BKN100
     FM270100 18005KT P6SM VCSH BKN050
     FM270500 20007KT 5SM BR BKN025=



000
FTUS41 KPBZ 261330 AAA
TAFLBE
TAF AMD
KLBE 261330Z 2614/2712 18006KT P6SM VCSH SCT040 BKN080
     FM262000 20008KT P6SM BKN100
     FM270300 18005KT P6SM VCSH BKN050
     FM270800 20007KT 5SM BR BKN025=



000
FTUS41 KPBZ 261327 AAA
TAFMGW
TAF AMD
KMGW 261327Z 2613/2712 19006KT P6SM VCSH BKN070
     FM261800 20008KT P6SM BKN080
     FM270200 18005KT P6SM VCSH BKN050
     FM270800 20007KT 5SM BR BKN025=



000
FTUS41 KPBZ 261327 AAA
TAFMGW
TAF AMD
KMGW 261327Z 2613/2712 19006KT P6SM VCSH BKN070
     FM261800 20008KT P6SM BKN080
     FM270200 18005KT P6SM VCSH BKN050
     FM270800 20007KT 5SM BR BKN025=



000
FTUS41 KPBZ 261253 AAA
TAFDUJ
TAF AMD
KDUJ 261253Z 2613/2712 18005KT P6SM BKN080
     FM262000 22009KT P6SM VCSH BKN040
     FM270300 18007KT P6SM BKN080=



000
FTUS41 KPBZ 261253 AAA
TAFDUJ
TAF AMD
KDUJ 261253Z 2613/2712 18005KT P6SM BKN080
     FM262000 22009KT P6SM VCSH BKN040
     FM270300 18007KT P6SM BKN080=



000
FTUS41 KPBZ 261121
TAFBVI
TAF
KBVI 261121Z 2612/2712 19004KT P6SM BKN100
     FM261700 20010KT P6SM VCSH BKN040
     FM270000 18005KT P6SM BKN100
     FM270800 20007KT 6SM -SHRA OVC025=



000
FTUS41 KPBZ 261121
TAFAGC
TAF
KAGC 261121Z 2612/2712 19004KT P6SM BKN100
     FM261700 20010KT P6SM VCSH BKN040
     FM270000 18005KT P6SM BKN100
     FM270800 20007KT 6SM -SHRA OVC025=



000
FTUS41 KPBZ 261121
TAFPIT
TAF
KPIT 261121Z 2612/2718 19004KT P6SM BKN100
     FM261700 20010KT P6SM VCSH BKN040
     FM270000 18005KT P6SM BKN100
     FM270800 20007KT 6SM -SHRA OVC025=



000
FTUS41 KPBZ 261121
TAFHLG
TAF
KHLG 261121Z 2612/2712 19004KT P6SM BKN100
     FM261700 20010KT P6SM VCSH BKN040
     FM270000 18005KT P6SM BKN100
     FM270800 20007KT 6SM -SHRA OVC025=



000
FTUS41 KPBZ 261121
TAFLBE
TAF
KLBE 261121Z 2612/2712 19004KT P6SM BKN100
     FM261700 20010KT P6SM VCSH BKN040
     FM270000 18005KT P6SM BKN100
     FM270800 20007KT 6SM -SHRA OVC025=



000
FTUS41 KPBZ 261121
TAFZZV
TAF
KZZV 261121Z 2612/2712 18005KT P6SM SCT025 BKN100
     FM261500 20008KT P6SM VCSH BKN040
     FM270100 19007KT P6SM VCTS BKN040CB
     FM270300 20007KT 5SM -SHRA BR OVC020=



000
FTUS41 KPBZ 261121
TAFMGW
TAF
KMGW 261121Z 2612/2712 19004KT P6SM BKN100
     FM261500 20010KT P6SM VCSH BKN040
     FM270000 18005KT P6SM BKN100
     FM270800 20007KT 6SM -SHRA OVC025=



000
FTUS41 KPBZ 261121
TAFDUJ
TAF
KDUJ 261121Z 2612/2712 20008G16KT P6SM BKN080
     FM262000 22009KT P6SM VCSH BKN040
     FM270300 18007KT P6SM BKN080=



    US Dept of Commerce
    National Oceanic and Atmospheric Administration
    National Weather Service
    1325 East West Highway
    Silver Spring, MD 20910
    Page Author: NWS Internet Services Team
Disclaimer
Information Quality
Credits
Glossary
Privacy Policy
Freedom of Information Act (FOIA)
About Us
Career Opportunities